createdAt,value
2019-05-20T00:00:46.386Z,82.91
2019-05-20T00:03:16.595Z,83.14
2019-05-20T00:05:46.774Z,82.62
2019-05-20T00:08:16.588Z,83.58
2019-05-20T00:10:46.395Z,83.58
2019-05-20T00:13:18.376Z,83.57
2019-05-20T00:15:50.225Z,84.30
2019-05-20T00:18:19.660Z,83.13
2019-05-20T00:20:49.412Z,82.45
2019-05-20T00:23:19.245Z,83.52
2019-05-20T00:25:48.961Z,83.97
2019-05-20T00:28:19.891Z,83.70
2019-05-20T00:30:50.745Z,83.70
2019-05-20T00:33:20.542Z,83.45
2019-05-20T00:35:51.142Z,83.29
2019-05-20T00:38:21.123Z,83.29
2019-05-20T00:40:52.831Z,82.80
2019-05-20T00:43:22.351Z,82.80
2019-05-20T00:45:52.295Z,82.93
2019-05-20T00:48:23.819Z,82.93
2019-05-20T00:50:54.142Z,83.33
2019-05-20T00:53:23.749Z,82.47
2019-05-20T00:55:53.753Z,82.47
2019-05-20T00:58:24.135Z,82.78
2019-05-20T01:00:55.342Z,82.45
2019-05-20T01:03:24.891Z,82.45
2019-05-20T01:05:54.432Z,83.22
2019-05-20T01:08:24.676Z,83.40
2019-05-20T01:10:54.320Z,83.40
2019-05-20T01:13:23.901Z,83.40
2019-05-20T01:15:54.646Z,82.83
2019-05-20T01:18:26.048Z,82.83
2019-05-20T01:20:55.757Z,83.89
2019-05-20T01:23:25.877Z,83.87
2019-05-20T01:25:55.814Z,83.87
2019-05-20T01:28:25.506Z,83.66
2019-05-20T01:30:56.233Z,83.72
2019-05-20T01:33:26.767Z,83.25
2019-05-20T01:35:57.066Z,84.24
2019-05-20T01:38:26.566Z,83.97
2019-05-20T01:40:56.190Z,83.92
2019-05-20T01:43:26.403Z,83.92
2019-05-20T01:45:57.156Z,83.42
2019-05-20T01:48:26.754Z,83.42
2019-05-20T01:50:56.371Z,85.56
2019-05-20T01:53:26.219Z,85.56
2019-05-20T01:55:55.733Z,85.96
2019-05-20T01:58:26.211Z,85.78
2019-05-20T02:00:59.931Z,84.54
2019-05-20T02:03:32.154Z,84.81
2019-05-20T02:06:01.276Z,85.50
2019-05-20T02:08:30.777Z,85.62
2019-05-20T02:11:00.412Z,85.62
2019-05-20T02:13:48.870Z,85.31
2019-05-20T02:16:19.655Z,85.03
2019-05-20T02:18:49.284Z,86.31
2019-05-20T02:21:18.881Z,86.31
2019-05-20T02:23:48.520Z,86.72
2019-05-20T02:26:18.229Z,86.72
2019-05-20T02:28:47.869Z,88.14
2019-05-20T02:31:18.548Z,88.14
2019-05-20T02:33:52.170Z,88.70
2019-05-20T02:36:20.323Z,88.35
2019-05-20T02:38:49.962Z,89.33
2019-05-20T02:41:21.352Z,90.44
2019-05-20T02:43:50.948Z,89.64
2019-05-20T02:46:20.683Z,89.21
2019-05-20T02:48:51.515Z,89.21
2019-05-20T02:51:31.491Z,88.25
2019-05-20T02:54:02.221Z,88.49
2019-05-20T02:56:33.344Z,89.67
2019-05-20T02:59:04.613Z,89.67
2019-05-20T03:01:36.697Z,89.98
2019-05-20T03:04:12.066Z,90.89
2019-05-20T03:06:38.167Z,90.73
2019-05-20T03:09:11.905Z,91.86
2019-05-20T03:11:40.819Z,91.86
2019-05-20T03:14:12.251Z,91.34
2019-05-20T03:16:42.970Z,92.63
2019-05-20T03:19:12.495Z,92.29
2019-05-20T03:21:44.869Z,92.61
2019-05-20T03:24:14.367Z,92.61
2019-05-20T03:26:46.552Z,91.34
2019-05-20T03:29:16.248Z,92.94
2019-05-20T03:31:45.846Z,93.79
2019-05-20T03:34:41.985Z,93.79
2019-05-20T03:36:47.937Z,94.11
2019-05-20T03:39:17.655Z,94.11
2019-05-20T03:41:47.561Z,94.46
2019-05-20T03:44:17.566Z,94.46
2019-05-20T03:46:47.250Z,94.64
2019-05-20T03:49:16.788Z,94.64
2019-05-20T03:51:46.710Z,94.45
2019-05-20T03:54:17.422Z,94.45
2019-05-20T03:56:47.335Z,94.44
2019-05-20T03:59:16.965Z,94.53
2019-05-20T04:01:46.599Z,94.53
2019-05-20T04:04:17.399Z,94.86
2019-05-20T04:06:47.520Z,95.60
2019-05-20T04:09:17.196Z,95.34
2019-05-20T04:11:47.649Z,95.34
2019-05-20T04:14:17.253Z,95.05
2019-05-20T04:16:46.967Z,95.05
2019-05-20T04:19:18.483Z,95.23
2019-05-20T04:21:48.007Z,95.02
2019-05-20T04:24:17.529Z,94.93
2019-05-20T04:26:50.719Z,95.56
2019-05-20T04:29:22.765Z,95.76
2019-05-20T04:31:52.269Z,95.64
2019-05-20T04:34:22.539Z,95.59
2019-05-20T04:36:53.054Z,95.73
2019-05-20T04:39:25.396Z,95.73
2019-05-20T04:41:55.101Z,95.68
2019-05-20T04:44:24.726Z,95.68
2019-05-20T04:46:58.053Z,95.18
2019-05-20T04:49:27.632Z,96.12
2019-05-20T04:51:57.250Z,96.00
2019-05-20T04:54:30.822Z,96.00
2019-05-20T04:57:02.588Z,96.57
2019-05-20T04:59:34.144Z,96.04
2019-05-20T05:02:07.277Z,95.51
2019-05-20T05:04:36.793Z,96.56
2019-05-20T05:07:06.338Z,96.56
2019-05-20T05:09:36.137Z,95.73
2019-05-20T05:12:05.960Z,96.23
2019-05-20T05:14:35.935Z,96.16
2019-05-20T05:17:08.176Z,95.52
2019-05-20T05:19:40.384Z,95.88
2019-05-20T05:22:10.271Z,96.40
2019-05-20T05:24:39.772Z,96.57
2019-05-20T05:27:09.204Z,96.43
2019-05-20T05:29:38.977Z,96.43
2019-05-20T05:32:08.608Z,96.38
2019-05-20T05:34:38.094Z,96.38
2019-05-20T05:37:09.596Z,96.08
2019-05-20T05:39:40.437Z,96.42
2019-05-20T05:42:10.071Z,97.24
2019-05-20T05:44:40.807Z,97.24
2019-05-20T05:47:14.061Z,96.68
2019-05-20T05:49:43.542Z,96.56
2019-05-20T05:52:13.583Z,96.52
2019-05-20T05:54:43.413Z,96.52
2019-05-20T05:57:15.059Z,96.09
2019-05-20T05:59:44.661Z,96.09
2019-05-20T06:02:14.687Z,96.93
2019-05-20T06:04:44.401Z,96.42
2019-05-20T06:07:14.237Z,96.42
2019-05-20T06:09:43.821Z,96.04
2019-05-20T06:12:13.400Z,96.25
2019-05-20T06:14:42.993Z,96.76
2019-05-20T06:17:12.618Z,96.76
2019-05-20T06:19:42.397Z,97.01
2019-05-20T06:22:14.480Z,96.77
2019-05-20T06:24:43.066Z,96.24
2019-05-20T06:27:13.717Z,96.24
2019-05-20T06:29:44.441Z,96.17
2019-05-20T06:32:14.600Z,96.43
2019-05-20T06:34:44.373Z,96.38
2019-05-20T06:37:15.923Z,96.38
2019-05-20T06:39:45.524Z,96.19
2019-05-20T06:42:15.484Z,95.94
2019-05-20T06:44:52.542Z,96.67
2019-05-20T06:47:16.367Z,96.67
2019-05-20T06:49:46.033Z,96.50
2019-05-20T06:52:15.495Z,95.76
2019-05-20T06:54:45.089Z,95.53
2019-05-20T06:57:15.262Z,94.53
2019-05-20T06:59:46.721Z,93.64
2019-05-20T07:02:16.116Z,93.64
2019-05-20T07:04:45.533Z,94.00
2019-05-20T07:07:21.357Z,93.44
2019-05-20T07:09:51.889Z,93.44
2019-05-20T07:12:21.381Z,93.78
2019-05-20T07:14:51.743Z,93.81
2019-05-20T07:17:21.150Z,93.00
2019-05-20T07:19:50.933Z,92.49
2019-05-20T07:22:20.385Z,92.49
2019-05-20T07:24:50.331Z,93.10
2019-05-20T07:27:19.902Z,93.32
2019-05-20T07:29:49.319Z,93.32
2019-05-20T07:32:19.017Z,93.06
2019-05-20T07:34:50.024Z,93.33
2019-05-20T07:37:26.155Z,92.54
2019-05-20T07:39:55.735Z,92.54
2019-05-20T07:42:25.382Z,92.82
2019-05-20T07:44:56.698Z,92.17
2019-05-20T07:47:29.580Z,93.57
2019-05-20T07:50:00.735Z,93.41
2019-05-20T07:52:30.280Z,93.41
2019-05-20T07:54:59.868Z,93.58
2019-05-20T07:57:32.420Z,93.58
2019-05-20T08:00:02.095Z,93.31
2019-05-20T08:02:31.722Z,93.31
2019-05-20T08:05:02.918Z,92.99
2019-05-20T08:07:50.734Z,92.99
2019-05-20T08:10:06.782Z,94.07
2019-05-20T08:12:37.215Z,94.15
2019-05-20T08:15:10.297Z,94.09
2019-05-20T08:17:40.220Z,94.09
2019-05-20T08:20:09.788Z,94.67
2019-05-20T08:22:42.540Z,93.91
2019-05-20T08:25:15.886Z,92.84
2019-05-20T08:27:45.553Z,92.78
2019-05-20T08:30:15.029Z,93.95
2019-05-20T08:32:44.593Z,93.95
2019-05-20T08:35:13.979Z,94.21
2019-05-20T08:37:45.846Z,93.94
2019-05-20T08:40:15.277Z,93.94
2019-05-20T08:42:44.985Z,94.00
2019-05-20T08:45:14.666Z,94.00
2019-05-20T08:47:44.170Z,93.49
2019-05-20T08:50:16.363Z,93.92
2019-05-20T08:52:45.319Z,94.32
2019-05-20T08:55:15.144Z,94.32
2019-05-20T08:57:44.813Z,93.73
2019-05-20T09:00:23.747Z,93.39
2019-05-20T09:02:53.831Z,93.32
2019-05-20T09:05:27.949Z,93.29
2019-05-20T09:08:03.187Z,93.41
2019-05-20T09:10:28.417Z,93.09
2019-05-20T09:12:58.148Z,93.06
2019-05-20T09:15:28.101Z,92.47
2019-05-20T09:17:57.725Z,92.47
2019-05-20T09:20:28.409Z,92.82
2019-05-20T09:23:02.630Z,92.80
2019-05-20T09:25:31.773Z,92.80
2019-05-20T09:28:01.739Z,92.56
2019-05-20T09:30:31.237Z,90.94
2019-05-20T09:33:02.739Z,90.94
2019-05-20T09:35:32.122Z,91.90
2019-05-20T09:38:17.261Z,91.36
2019-05-20T09:40:38.398Z,91.38
2019-05-20T09:43:07.946Z,91.38
2019-05-20T09:45:37.429Z,91.98
2019-05-20T09:48:15.172Z,91.98
2019-05-20T09:50:45.387Z,92.20
2019-05-20T09:53:15.341Z,90.28
2019-05-20T09:55:46.012Z,89.77
2019-05-20T09:58:15.791Z,89.77
2019-05-20T10:00:49.282Z,90.15
2019-05-20T10:03:25.632Z,89.53
2019-05-20T10:05:55.415Z,89.53
2019-05-20T10:08:37.678Z,88.75
2019-05-20T10:10:59.688Z,89.34
2019-05-20T10:13:29.838Z,89.83
2019-05-20T10:18:35.965Z,89.83
2019-05-20T10:20:53.801Z,87.21
2019-05-20T10:23:45.647Z,88.30
2019-05-20T10:26:16.212Z,88.30
2019-05-20T10:28:47.533Z,88.36
2019-05-20T10:31:17.473Z,89.30
2019-05-20T10:33:47.443Z,88.41
2019-05-20T10:36:17.859Z,88.41
2019-05-20T10:38:58.506Z,87.88
2019-05-20T10:41:18.979Z,87.50
2019-05-20T10:43:48.423Z,88.37
2019-05-20T10:46:19.014Z,88.85
2019-05-20T10:48:48.470Z,88.85
2019-05-20T10:51:17.985Z,88.47
2019-05-20T10:53:48.394Z,87.76
2019-05-20T10:56:18.213Z,86.82
2019-05-20T10:58:54.153Z,87.93
2019-05-20T11:01:26.152Z,87.93
2019-05-20T11:03:55.970Z,87.96
2019-05-20T11:06:25.773Z,88.33
2019-05-20T11:09:13.787Z,88.26
2019-05-20T11:11:33.425Z,87.48
2019-05-20T11:14:03.819Z,88.24
2019-05-20T11:16:36.150Z,88.05
2019-05-20T11:19:09.638Z,87.95
2019-05-20T11:21:42.622Z,87.91
2019-05-20T11:24:12.407Z,87.91
2019-05-20T11:26:42.053Z,88.08
2019-05-20T11:29:13.989Z,87.71
2019-05-20T11:31:48.010Z,87.84
2019-05-20T11:34:20.570Z,87.84
2019-05-20T11:36:51.666Z,88.35
2019-05-20T11:39:33.235Z,87.92
2019-05-20T11:41:57.009Z,87.44
2019-05-20T11:44:27.306Z,86.19
2019-05-20T11:46:57.339Z,86.72
2019-05-20T11:49:29.294Z,87.35
2019-05-20T11:52:00.269Z,86.52
2019-05-20T11:54:31.215Z,85.99
2019-05-20T11:57:01.044Z,85.99
2019-05-20T11:59:31.669Z,86.60
2019-05-20T12:02:03.859Z,86.80
2019-05-20T12:04:32.374Z,85.52
2019-05-20T12:07:02.194Z,85.66
2019-05-20T12:09:48.148Z,85.84
2019-05-20T12:12:05.210Z,85.81
2019-05-20T12:14:34.842Z,85.81
2019-05-20T12:17:04.487Z,84.70
2019-05-20T12:19:33.999Z,84.70
2019-05-20T12:22:04.770Z,84.85
2019-05-20T12:24:34.326Z,85.08
2019-05-20T12:27:03.956Z,84.91
2019-05-20T12:29:33.719Z,84.39
2019-05-20T12:32:03.861Z,84.39
2019-05-20T12:34:34.105Z,84.82
2019-05-20T12:37:04.128Z,84.40
2019-05-20T12:42:02.084Z,82.99
2019-05-20T12:44:32.010Z,82.39
2019-05-20T12:47:01.833Z,82.31
2019-05-20T12:49:31.648Z,81.66
2019-05-20T12:52:02.150Z,81.50
2019-05-20T12:54:36.456Z,80.97
2019-05-20T12:57:06.277Z,80.97
2019-05-20T12:59:35.733Z,80.57
2019-05-20T13:02:06.700Z,81.66
2019-05-20T13:04:38.465Z,81.66
2019-05-20T13:07:09.157Z,82.03
2019-05-20T13:09:39.354Z,81.35
2019-05-20T13:12:09.204Z,83.49
2019-05-20T13:14:39.373Z,82.10
2019-05-20T13:17:13.080Z,82.10
2019-05-20T13:19:53.937Z,84.21
2019-05-20T13:22:24.544Z,84.63
2019-05-20T13:24:55.153Z,84.63
2019-05-20T13:27:24.752Z,84.01
2019-05-20T13:29:54.512Z,83.43
2019-05-20T13:32:24.074Z,83.78
2019-05-20T13:34:54.235Z,82.90
2019-05-20T13:37:23.870Z,85.08
2019-05-20T13:39:57.398Z,85.08
2019-05-20T13:42:26.936Z,84.08
2019-05-20T13:44:56.925Z,83.37
2019-05-20T13:47:28.442Z,84.05
2019-05-20T13:49:59.513Z,84.41
2019-05-20T13:52:28.953Z,84.41
2019-05-20T13:54:58.663Z,85.33
2019-05-20T13:57:28.154Z,85.11
2019-05-20T13:59:58.035Z,86.17
2019-05-20T14:02:27.709Z,86.17
2019-05-20T14:04:57.537Z,84.81
2019-05-20T14:07:27.124Z,84.81
2019-05-20T14:09:56.675Z,86.89
2019-05-20T14:12:29.115Z,86.19
2019-05-20T14:14:58.839Z,84.87
2019-05-20T14:17:28.944Z,85.70
2019-05-20T14:19:59.243Z,85.70
2019-05-20T14:22:28.914Z,85.63
2019-05-20T14:24:58.383Z,85.63
2019-05-20T14:27:28.252Z,86.77
2019-05-20T14:30:02.904Z,85.71
2019-05-20T14:32:32.780Z,85.71
2019-05-20T14:35:05.954Z,86.66
2019-05-20T14:37:35.380Z,85.66
2019-05-20T14:40:05.128Z,86.20
2019-05-20T14:42:35.208Z,86.12
2019-05-20T14:45:05.296Z,86.07
2019-05-20T14:47:35.072Z,85.65
2019-05-20T14:50:09.460Z,85.65
2019-05-20T14:52:38.892Z,86.13
2019-05-20T14:55:11.475Z,86.23
2019-05-20T14:57:41.606Z,86.97
2019-05-20T15:00:14.374Z,86.27
2019-05-20T15:02:44.441Z,85.50
2019-05-20T15:05:14.272Z,85.50
2019-05-20T15:07:44.321Z,85.68
2019-05-20T15:10:17.078Z,85.79
2019-05-20T15:12:46.951Z,86.39
2019-05-20T15:15:16.442Z,85.54
2019-05-20T15:17:48.627Z,85.60
2019-05-20T15:20:19.415Z,85.60
2019-05-20T15:22:52.691Z,84.77
2019-05-20T15:25:23.947Z,84.78
2019-05-20T15:27:53.438Z,84.78
2019-05-20T15:30:23.389Z,84.68
2019-05-20T15:32:54.852Z,83.61
2019-05-20T15:35:23.992Z,84.05
2019-05-20T15:37:58.798Z,83.55
2019-05-20T15:40:28.220Z,83.55
2019-05-20T15:42:58.366Z,83.77
2019-05-20T15:45:28.092Z,83.67
2019-05-20T15:47:57.757Z,83.57
2019-05-20T15:50:28.085Z,83.19
2019-05-20T15:52:58.103Z,83.05
2019-05-20T15:55:30.263Z,82.78
2019-05-20T15:58:00.423Z,83.23
2019-05-20T16:00:32.018Z,83.23
2019-05-20T16:03:02.663Z,82.07
2019-05-20T16:05:32.409Z,83.08
2019-05-20T16:08:02.089Z,82.46
2019-05-20T16:10:32.476Z,82.47
2019-05-20T16:13:02.249Z,82.26
2019-05-20T16:15:32.385Z,82.26
2019-05-20T16:18:01.916Z,81.85
2019-05-20T16:20:31.998Z,82.79
2019-05-20T16:23:03.140Z,83.72
2019-05-20T16:25:34.314Z,83.72
2019-05-20T16:28:06.051Z,83.86
2019-05-20T16:30:35.655Z,83.84
2019-05-20T16:33:06.573Z,83.79
2019-05-20T16:35:36.474Z,84.02
2019-05-20T16:38:06.294Z,84.02
2019-05-20T16:40:39.024Z,84.94
2019-05-20T16:43:11.957Z,84.94
2019-05-20T16:45:41.625Z,85.34
2019-05-20T16:48:15.855Z,85.29
2019-05-20T16:50:45.227Z,84.82
2019-05-20T16:53:15.710Z,85.41
2019-05-20T16:55:51.407Z,84.68
2019-05-20T16:58:21.077Z,84.68
2019-05-20T17:00:50.660Z,84.94
2019-05-20T17:03:20.251Z,84.75
2019-05-20T17:05:54.240Z,84.76
2019-05-20T17:08:25.329Z,84.76
2019-05-20T17:10:55.275Z,85.23
2019-05-20T17:13:26.363Z,85.23
2019-05-20T17:15:59.230Z,85.98
2019-05-20T17:18:30.708Z,86.10
2019-05-20T17:21:03.289Z,86.10
2019-05-20T17:23:37.608Z,85.55
2019-05-20T17:26:14.500Z,85.82
2019-05-20T17:28:44.448Z,85.27
2019-05-20T17:31:14.541Z,85.27
2019-05-20T17:33:44.131Z,85.77
2019-05-20T17:36:13.741Z,86.09
2019-05-20T17:38:43.961Z,86.09
2019-05-20T17:41:15.623Z,85.59
2019-05-20T17:43:51.080Z,85.43
2019-05-20T17:46:27.208Z,86.51
2019-05-20T17:48:57.086Z,86.23
2019-05-20T17:51:29.760Z,85.54
2019-05-20T17:54:06.721Z,85.54
2019-05-20T17:56:40.136Z,85.31
2019-05-20T17:59:09.895Z,85.93
2019-05-20T18:01:42.730Z,86.65
2019-05-20T18:04:14.783Z,86.02
2019-05-20T18:06:44.632Z,86.28
2019-05-20T18:09:14.273Z,86.28
2019-05-20T18:11:45.431Z,85.71
2019-05-20T18:14:16.201Z,86.42
2019-05-20T18:16:45.880Z,86.85
2019-05-20T18:19:15.302Z,87.47
2019-05-20T18:21:45.060Z,87.47
2019-05-20T18:24:15.482Z,86.25
2019-05-20T18:26:50.630Z,86.42
2019-05-20T18:29:20.027Z,87.13
2019-05-20T18:31:51.755Z,87.24
2019-05-20T18:34:34.769Z,87.24
2019-05-20T18:37:04.235Z,88.28
2019-05-20T18:39:35.526Z,88.28
2019-05-20T18:42:08.660Z,88.80
2019-05-20T18:44:38.227Z,87.74
2019-05-20T18:47:10.215Z,87.37
2019-05-20T18:49:44.487Z,87.37
2019-05-20T18:52:16.230Z,87.21
2019-05-20T18:54:45.864Z,87.89
2019-05-20T18:57:15.654Z,87.89
2019-05-20T18:59:48.281Z,88.68
2019-05-20T19:02:18.513Z,88.68
2019-05-20T19:04:47.947Z,87.58
2019-05-20T19:07:17.401Z,87.58
2019-05-20T19:09:47.471Z,87.58
2019-05-20T19:12:18.477Z,87.39
2019-05-20T19:14:51.492Z,87.60
2019-05-20T19:17:21.455Z,87.60
2019-05-20T19:19:55.944Z,88.16
2019-05-20T19:22:28.375Z,87.25
2019-05-20T19:25:07.401Z,87.21
2019-05-20T19:27:37.502Z,87.21
2019-05-20T19:30:08.046Z,88.70
2019-05-20T19:32:39.558Z,88.70
2019-05-20T19:35:09.356Z,88.34
2019-05-20T19:37:39.187Z,87.71
2019-05-20T19:40:09.317Z,89.02
2019-05-20T19:42:42.421Z,88.73
2019-05-20T19:45:12.408Z,88.48
2019-05-20T19:47:42.409Z,89.15
2019-05-20T19:50:14.763Z,89.15
2019-05-20T19:52:44.675Z,89.50
2019-05-20T19:55:19.065Z,89.13
2019-05-20T19:57:48.618Z,89.13
2019-05-20T20:00:19.987Z,88.18
2019-05-20T20:02:49.570Z,88.18
2019-05-20T20:05:23.844Z,89.28
2019-05-20T20:07:53.416Z,89.87
2019-05-20T20:10:23.164Z,89.87
2019-05-20T20:12:56.331Z,89.93
2019-05-20T20:15:26.478Z,90.25
2019-05-20T20:17:58.861Z,89.14
2019-05-20T20:20:28.977Z,88.82
2019-05-20T20:22:58.554Z,88.82
2019-05-20T20:25:36.533Z,89.32
2019-05-20T20:28:07.789Z,89.38
2019-05-20T20:30:37.371Z,89.38
2019-05-20T20:33:07.292Z,89.28
2019-05-20T20:35:43.001Z,88.58
2019-05-20T20:38:10.158Z,88.58
2019-05-20T20:40:43.394Z,89.21
2019-05-20T20:43:16.431Z,89.55
2019-05-20T20:45:46.414Z,89.20
2019-05-20T20:48:16.825Z,89.20
2019-05-20T20:50:47.593Z,90.49
2019-05-20T20:53:18.917Z,89.94
2019-05-20T20:55:51.795Z,89.94
2019-05-20T20:58:22.232Z,90.62
2019-05-20T21:00:54.574Z,90.83
2019-05-20T21:03:29.901Z,91.21
2019-05-20T21:06:02.033Z,90.76
2019-05-20T21:08:33.673Z,90.75
2019-05-20T21:11:03.710Z,90.75
2019-05-20T21:13:40.254Z,91.77
2019-05-20T21:16:11.330Z,91.77
2019-05-20T21:18:41.966Z,92.16
2019-05-20T21:21:12.209Z,91.66
2019-05-20T21:23:41.642Z,92.05
2019-05-20T21:26:14.286Z,92.05
2019-05-20T21:28:44.946Z,92.38
2019-05-20T21:31:14.639Z,92.69
2019-05-20T21:33:44.164Z,92.39
2019-05-20T21:36:14.407Z,92.39
2019-05-20T21:38:44.397Z,93.71
2019-05-20T21:41:14.380Z,93.71
2019-05-20T21:43:46.957Z,92.66
2019-05-20T21:46:16.381Z,93.35
2019-05-20T21:48:46.102Z,92.74
2019-05-20T21:51:16.026Z,92.74
2019-05-20T21:53:49.085Z,94.69
2019-05-20T21:56:21.453Z,95.33
2019-05-20T21:58:51.178Z,95.33
2019-05-20T22:01:24.766Z,96.03
2019-05-20T22:03:57.268Z,95.83
2019-05-20T22:06:30.168Z,96.29
2019-05-20T22:08:59.919Z,96.29
2019-05-20T22:11:29.878Z,96.47
2019-05-20T22:14:00.015Z,96.96
2019-05-20T22:16:29.982Z,96.96
2019-05-20T22:18:59.574Z,97.39
2019-05-20T22:21:34.075Z,97.76
2019-05-20T22:24:06.843Z,98.28
2019-05-20T22:26:36.378Z,98.17
2019-05-20T22:29:13.610Z,97.92
2019-05-20T22:31:43.199Z,98.08
2019-05-20T22:34:12.677Z,98.08
2019-05-20T22:36:42.803Z,98.49
2019-05-20T22:39:12.433Z,98.16
2019-05-20T22:41:45.041Z,98.16
2019-05-20T22:44:14.674Z,98.47
2019-05-20T22:46:44.803Z,99.08
2019-05-20T22:49:14.366Z,98.68
2019-05-20T22:51:45.653Z,99.57
2019-05-20T22:54:15.361Z,99.86
2019-05-20T22:56:45.068Z,99.86
2019-05-20T22:59:14.915Z,99.56
2019-05-20T23:04:26.748Z,98.46
2019-05-20T23:06:56.429Z,97.75
2019-05-20T23:09:26.237Z,97.98
2019-05-20T23:11:58.070Z,98.59
2019-05-20T23:14:27.842Z,98.87
2019-05-20T23:16:57.535Z,99.08
2019-05-20T23:19:29.906Z,99.08
2019-05-20T23:22:00.489Z,98.96
2019-05-20T23:24:30.445Z,98.96
2019-05-20T23:27:00.636Z,98.96
2019-05-20T23:29:30.403Z,98.76
2019-05-20T23:32:00.163Z,99.07
2019-05-20T23:34:30.026Z,99.07
2019-05-20T23:37:00.186Z,98.99
2019-05-20T23:39:30.028Z,98.99
2019-05-20T23:41:59.854Z,99.10
2019-05-20T23:44:29.413Z,99.49
2019-05-20T23:47:00.165Z,99.69
2019-05-20T23:49:32.014Z,99.09
2019-05-20T23:52:02.537Z,99.23
2019-05-20T23:54:37.044Z,99.26
2019-05-20T23:57:07.167Z,99.87
2019-05-20T23:59:36.882Z,99.67
